Time;durP1;ratioP1;P1;durP2;ratioP2;P2;SDS_P1;SDS_P2;PMS_P1;PMS_P2;Temp;Humidity;BMP_temperature;BMP_pressure;BME280_temperature;BME280_humidity;BME280_pressure;Samples;Min_cycle;Max_cycle;Signal;HPM_P1;HPM_P2
2023/09/09 00:00:29;;;;;;;6.40;6.10;;;24.60;51.00;;;;;;5006634;28;20522;-67
2023/09/09 00:02:55;;;;;;;6.07;5.77;;;24.60;51.00;;;;;;5007290;28;20501;-70
2023/09/09 00:05:20;;;;;;;5.73;5.50;;;24.60;51.00;;;;;;5007112;28;21042;-67
2023/09/09 00:07:46;;;;;;;5.60;5.40;;;24.60;51.00;;;;;;5004092;28;20313;-73
2023/09/09 00:10:11;;;;;;;5.30;5.10;;;24.60;51.00;;;;;;5010231;28;20240;-70
2023/09/09 00:12:37;;;;;;;6.27;5.97;;;24.60;51.00;;;;;;5010599;28;20679;-66
2023/09/09 00:15:08;;;;;;;6.37;6.07;;;24.60;51.10;;;;;;5011593;28;20475;-69
2023/09/09 00:17:33;;;;;;;5.80;5.50;;;24.60;51.00;;;;;;5010393;28;20371;-66
2023/09/09 00:19:59;;;;;;;5.60;5.30;;;24.60;51.00;;;;;;5010817;28;20468;-65
2023/09/09 00:22:24;;;;;;;5.53;5.20;;;24.60;51.00;;;;;;5010146;28;20378;-70
2023/09/09 00:24:50;;;;;;;5.80;5.60;;;24.60;51.00;;;;;;5011829;28;20218;-70
2023/09/09 00:27:16;;;;;;;6.20;5.90;;;24.60;51.00;;;;;;4993419;28;20640;-71
2023/09/09 00:29:41;;;;;;;5.77;5.47;;;24.60;51.00;;;;;;5010094;28;20322;-66
2023/09/09 00:32:07;;;;;;;6.00;5.77;;;24.60;51.00;;;;;;5009080;28;20237;-68
2023/09/09 00:34:34;;;;;;;6.20;5.90;;;24.60;51.00;;;;;;5007746;28;20241;-65
2023/09/09 00:36:59;;;;;;;6.30;6.00;;;24.60;51.10;;;;;;5010088;28;20609;-65
2023/09/09 00:39:25;;;;;;;5.97;5.67;;;24.60;51.00;;;;;;5010363;28;20468;-73
2023/09/09 00:41:50;;;;;;;5.80;5.50;;;24.60;51.00;;;;;;5010661;28;20262;-68
2023/09/09 00:44:16;;;;;;;5.80;5.50;;;24.60;51.00;;;;;;5012531;28;20215;-66
2023/09/09 00:46:42;;;;;;;5.37;5.17;;;24.60;51.00;;;;;;5010507;28;20243;-68
2023/09/09 00:49:08;;;;;;;5.33;5.13;;;24.60;51.00;;;;;;5010211;28;20619;-65
2023/09/09 00:51:37;;;;;;;6.00;5.70;;;24.60;51.10;;;;;;5009320;28;20948;-66
2023/09/09 00:54:03;;;;;;;6.00;5.70;;;24.60;51.10;;;;;;5011600;28;20523;-67
2023/09/09 00:56:29;;;;;;;6.10;5.80;;;24.60;51.10;;;;;;5010007;28;20474;-67
2023/09/09 00:58:55;;;;;;;5.87;5.57;;;24.60;51.10;;;;;;5010290;28;20456;-68
2023/09/09 01:01:20;;;;;;;6.03;5.73;;;24.60;51.10;;;;;;5010682;28;20248;-69
2023/09/09 01:03:51;;;;;;;5.87;5.57;;;24.60;51.00;;;;;;5009524;28;20246;-68
2023/09/09 01:06:17;;;;;;;6.00;5.70;;;24.60;51.10;;;;;;5010215;28;20269;-69
2023/09/09 01:16:48;;;;;;;6.00;5.70;;;24.60;51.10;;;;;;1392759;26;20649;-73
2023/09/09 01:19:16;;;;;;;6.20;5.90;;;24.60;51.10;;;;;;4959778;28;20995;-73
2023/09/09 01:21:44;;;;;;;4.90;4.70;;;24.60;51.10;;;;;;4961792;28;20472;-73
2023/09/09 01:24:15;;;;;;;5.27;5.07;;;24.60;51.10;;;;;;4959773;28;20610;-73
2023/09/09 01:26:41;;;;;;;6.07;5.67;;;24.60;51.10;;;;;;4961174;28;20545;-73
2023/09/09 01:29:07;;;;;;;5.77;5.47;;;24.60;51.10;;;;;;4962426;28;20594;-73
2023/09/09 01:31:33;;;;;;;6.90;6.50;;;24.60;51.10;;;;;;4960977;28;20462;-73
2023/09/09 01:33:58;;;;;;;5.90;5.60;;;24.60;51.10;;;;;;4956727;28;20278;-73
2023/09/09 01:36:24;;;;;;;6.30;6.00;;;24.60;51.10;;;;;;4961652;28;20771;-73
2023/09/09 01:38:49;;;;;;;5.50;5.20;;;24.50;51.10;;;;;;4963705;28;20223;-74
2023/09/09 01:41:15;;;;;;;5.60;5.30;;;24.60;51.10;;;;;;4962870;28;20806;-74
2023/09/09 01:43:40;;;;;;;5.27;5.00;;;24.60;51.10;;;;;;4964325;28;20648;-73
2023/09/09 01:46:06;;;;;;;5.40;5.10;;;24.50;51.10;;;;;;4963627;28;20282;-73
2023/09/09 01:48:31;;;;;;;5.73;5.43;;;24.50;51.10;;;;;;4961986;28;20225;-73
2023/09/09 01:50:57;;;;;;;6.23;5.93;;;24.60;51.20;;;;;;4961454;28;20254;-73
2023/09/09 01:53:22;;;;;;;5.90;5.60;;;24.60;51.20;;;;;;4959892;28;20231;-74
2023/09/09 01:55:48;;;;;;;5.90;5.60;;;24.50;51.20;;;;;;4962959;28;20231;-73
2023/09/09 01:58:15;;;;;;;6.20;5.90;;;24.50;51.10;;;;;;4963551;28;20224;-73
2023/09/09 02:00:41;;;;;;;5.50;5.20;;;24.50;51.10;;;;;;4960701;28;21134;-73
2023/09/09 02:03:07;;;;;;;5.50;5.30;;;24.50;51.10;;;;;;4961366;28;20461;-73
2023/09/09 02:05:33;;;;;;;5.53;5.33;;;24.60;51.20;;;;;;4961735;28;20233;-74
2023/09/09 02:07:58;;;;;;;5.70;5.40;;;24.50;51.10;;;;;;4963908;28;20473;-74
2023/09/09 02:10:24;;;;;;;5.33;5.03;;;24.50;51.10;;;;;;4959914;28;20759;-73
2023/09/09 02:12:49;;;;;;;6.17;5.77;;;24.50;51.20;;;;;;4962592;28;20217;-73
2023/09/09 02:15:15;;;;;;;6.37;5.87;;;24.50;51.10;;;;;;4960857;28;20692;-74
2023/09/09 02:17:41;;;;;;;6.63;6.33;;;24.50;51.10;;;;;;4973618;28;20243;-73
2023/09/09 02:20:09;;;;;;;5.60;5.30;;;24.50;51.20;;;;;;4981531;28;20227;-74
2023/09/09 02:22:34;;;;;;;6.47;6.07;;;24.50;51.20;;;;;;4979520;28;20310;-73
2023/09/09 02:25:00;;;;;;;5.90;5.60;;;24.50;51.20;;;;;;4981367;28;20875;-73
2023/09/09 02:27:26;;;;;;;5.10;4.90;;;24.50;51.20;;;;;;4978173;28;20256;-74
2023/09/09 02:29:51;;;;;;;6.00;5.60;;;24.50;51.20;;;;;;4981095;28;20239;-74
2023/09/09 02:32:18;;;;;;;5.67;5.30;;;24.50;51.10;;;;;;4959598;28;20223;-74
2023/09/09 02:34:44;;;;;;;5.23;5.03;;;24.50;51.20;;;;;;4969881;28;20258;-73
2023/09/09 02:37:18;;;;;;;5.90;5.60;;;24.50;51.20;;;;;;4980341;28;21450;-73
2023/09/09 02:39:45;;;;;;;5.97;5.67;;;24.50;51.20;;;;;;4983644;28;20282;-74
2023/09/09 02:42:13;;;;;;;5.90;5.50;;;24.50;51.40;;;;;;4980909;28;22218;-73
2023/09/09 02:44:39;;;;;;;5.67;5.37;;;24.50;51.20;;;;;;4980243;28;20480;-73
2023/09/09 02:47:05;;;;;;;5.17;4.97;;;24.50;51.30;;;;;;4982380;28;20541;-74
2023/09/09 02:49:31;;;;;;;5.67;5.37;;;24.50;51.20;;;;;;4980607;28;20490;-73
2023/09/09 02:51:56;;;;;;;5.33;5.13;;;24.50;51.20;;;;;;4982209;28;20544;-73
2023/09/09 02:54:22;;;;;;;5.40;5.17;;;24.50;51.20;;;;;;4979893;28;20335;-73
2023/09/09 02:56:47;;;;;;;6.13;5.83;;;24.50;51.20;;;;;;4980362;28;20220;-73
2023/09/09 02:59:13;;;;;;;5.70;5.47;;;24.50;51.20;;;;;;4980721;28;20351;-73
2023/09/09 03:01:38;;;;;;;5.83;5.53;;;24.50;51.20;;;;;;4976769;28;20237;-73
2023/09/09 03:04:04;;;;;;;5.87;5.57;;;24.50;51.20;;;;;;4981496;28;20228;-73
2023/09/09 03:06:29;;;;;;;5.23;5.03;;;24.50;51.20;;;;;;4980063;28;20227;-73
2023/09/09 03:08:55;;;;;;;5.70;5.40;;;24.50;51.20;;;;;;4978906;28;20277;-73
2023/09/09 03:11:20;;;;;;;5.97;5.70;;;24.50;51.20;;;;;;4982466;28;21020;-73
2023/09/09 03:13:46;;;;;;;5.40;5.10;;;24.50;51.30;;;;;;4980949;28;20757;-73
2023/09/09 03:16:11;;;;;;;5.77;5.50;;;24.50;51.20;;;;;;4984195;28;20227;-76
2023/09/09 03:18:37;;;;;;;5.77;5.47;;;24.50;51.20;;;;;;4984152;28;20254;-76
2023/09/09 03:21:03;;;;;;;5.73;5.43;;;24.50;51.30;;;;;;4989481;28;20220;-76
2023/09/09 03:23:28;;;;;;;5.10;4.90;;;24.50;51.30;;;;;;4986398;28;20880;-76
2023/09/09 03:25:54;;;;;;;5.77;5.47;;;24.50;51.20;;;;;;4987273;28;20380;-76
2023/09/09 03:28:19;;;;;;;5.37;5.10;;;24.50;51.30;;;;;;4988840;28;20222;-76
2023/09/09 03:30:56;;;;;;;5.60;5.30;;;24.50;51.30;;;;;;4987502;28;20334;-76
2023/09/09 03:33:22;;;;;;;5.40;5.20;;;24.50;51.20;;;;;;4986695;28;20710;-83
2023/09/09 03:35:48;;;;;;;5.13;4.93;;;24.50;51.30;;;;;;4989051;28;20457;-71
2023/09/09 03:38:14;;;;;;;5.70;5.40;;;24.50;51.30;;;;;;4987783;28;20454;-71
2023/09/09 03:40:39;;;;;;;4.80;4.60;;;24.50;51.30;;;;;;4988863;28;20674;-71
2023/09/09 03:43:05;;;;;;;4.83;4.53;;;24.50;51.30;;;;;;4990571;28;21501;-71
2023/09/09 03:45:31;;;;;;;5.30;5.00;;;24.50;51.30;;;;;;4989924;28;20268;-72
2023/09/09 03:47:56;;;;;;;5.60;5.30;;;24.50;51.30;;;;;;4992377;28;20690;-72
2023/09/09 03:50:22;;;;;;;5.47;5.17;;;24.50;51.30;;;;;;4991758;28;20247;-71
2023/09/09 03:52:48;;;;;;;5.57;5.33;;;24.50;51.30;;;;;;4986304;28;20249;-72
2023/09/09 03:55:13;;;;;;;5.73;5.43;;;24.50;51.30;;;;;;4991794;28;20235;-73
2023/09/09 03:57:39;;;;;;;5.67;5.37;;;24.50;52.00;;;;;;4990705;28;20350;-73
2023/09/09 04:00:09;;;;;;;5.57;5.33;;;24.50;51.20;;;;;;4992486;28;20245;-73
2023/09/09 04:02:34;;;;;;;5.83;5.63;;;24.50;51.30;;;;;;4989022;28;20978;-73
2023/09/09 04:05:00;;;;;;;5.30;5.00;;;24.50;51.30;;;;;;4993465;28;20484;-73
2023/09/09 04:07:25;;;;;;;4.80;4.60;;;24.50;51.30;;;;;;4992515;28;20586;-72
2023/09/09 04:09:53;;;;;;;5.30;5.10;;;24.50;51.30;;;;;;4989734;28;20274;-72
2023/09/09 04:12:19;;;;;;;5.73;5.43;;;24.50;51.30;;;;;;4977499;28;20231;-73
2023/09/09 04:14:44;;;;;;;5.43;5.20;;;24.50;51.30;;;;;;4991473;28;20453;-73
2023/09/09 04:17:10;;;;;;;5.63;5.33;;;24.50;51.30;;;;;;4993955;28;20242;-72
2023/09/09 04:19:35;;;;;;;5.50;5.30;;;24.50;51.30;;;;;;4992822;28;20301;-72
2023/09/09 04:22:01;;;;;;;5.13;4.93;;;24.50;51.40;;;;;;4991647;28;20227;-73
2023/09/09 04:24:27;;;;;;;5.30;5.10;;;24.50;51.30;;;;;;4990575;28;20229;-72
2023/09/09 04:26:53;;;;;;;5.00;4.80;;;24.50;51.30;;;;;;4991330;28;20238;-72
2023/09/09 04:29:19;;;;;;;5.80;5.50;;;24.50;51.30;;;;;;4990886;28;20223;-81
2023/09/09 04:31:46;;;;;;;4.70;4.50;;;24.50;51.30;;;;;;4990263;28;20507;-77
2023/09/09 04:34:12;;;;;;;5.17;4.87;;;24.50;51.30;;;;;;4993710;28;20334;-77
2023/09/09 04:36:38;;;;;;;5.40;5.20;;;24.50;51.30;;;;;;4989463;28;20539;-70
2023/09/09 04:39:03;;;;;;;4.70;4.50;;;24.50;51.30;;;;;;4991070;28;20575;-76
2023/09/09 04:41:29;;;;;;;5.43;5.23;;;24.50;51.30;;;;;;4989621;28;20540;-69
2023/09/09 04:43:54;;;;;;;6.23;5.57;;;24.50;51.40;;;;;;4988720;28;20215;-68
2023/09/09 04:46:20;;;;;;;6.23;5.83;;;24.50;51.30;;;;;;4989756;28;20224;-65
2023/09/09 04:48:46;;;;;;;6.17;5.87;;;24.50;51.20;;;;;;4988602;28;20317;-73
2023/09/09 04:51:11;;;;;;;5.47;5.17;;;24.50;51.20;;;;;;4971894;28;21119;-73
2023/09/09 04:53:37;;;;;;;5.40;5.20;;;24.50;51.10;;;;;;4989794;28;20215;-76
2023/09/09 04:56:03;;;;;;;4.70;4.50;;;24.50;51.10;;;;;;4989196;28;20228;-72
2023/09/09 04:58:29;;;;;;;6.50;6.00;;;24.50;51.10;;;;;;4989715;28;20215;-74
2023/09/09 05:00:55;;;;;;;6.13;5.83;;;24.50;51.10;;;;;;4985515;28;20980;-73
2023/09/09 05:03:20;;;;;;;5.27;4.97;;;24.60;51.10;;;;;;4969302;28;20242;-78
2023/09/09 05:05:46;;;;;;;5.60;5.30;;;24.60;51.10;;;;;;4987917;28;20223;-76
2023/09/09 05:08:12;;;;;;;5.53;5.33;;;24.60;51.10;;;;;;4985746;28;20635;-75
2023/09/09 05:10:37;;;;;;;5.70;5.40;;;24.60;51.00;;;;;;4988993;28;20310;-67
2023/09/09 05:13:04;;;;;;;5.40;5.20;;;24.60;51.00;;;;;;4980152;28;20227;-71
2023/09/09 05:15:30;;;;;;;5.43;5.23;;;24.60;50.90;;;;;;4987314;28;20330;-74
2023/09/09 05:17:55;;;;;;;5.80;5.50;;;24.60;50.90;;;;;;4989367;28;20457;-69
2023/09/09 05:20:21;;;;;;;5.77;5.47;;;24.60;50.80;;;;;;4987208;28;20571;-76
2023/09/09 05:22:47;;;;;;;5.77;5.47;;;24.60;50.80;;;;;;4990212;28;20235;-75
2023/09/09 05:25:13;;;;;;;5.77;5.57;;;24.60;50.80;;;;;;4991517;28;20305;-75
2023/09/09 05:27:38;;;;;;;5.83;5.53;;;24.60;50.80;;;;;;4984693;28;20445;-73
2023/09/09 05:30:05;;;;;;;5.23;4.93;;;24.70;50.90;;;;;;4984750;28;20363;-73
2023/09/09 05:32:30;;;;;;;5.30;5.10;;;24.60;50.80;;;;;;4989368;28;20234;-73
2023/09/09 05:34:56;;;;;;;5.70;5.37;;;24.60;50.70;;;;;;4988186;28;20461;-68
2023/09/09 05:37:22;;;;;;;5.80;5.50;;;24.60;50.80;;;;;;4989950;28;20219;-72
2023/09/09 05:39:47;;;;;;;6.77;6.17;;;24.60;50.80;;;;;;4987434;28;20239;-69
2023/09/09 05:42:13;;;;;;;6.43;6.03;;;24.60;50.80;;;;;;4985002;28;20239;-74
2023/09/09 05:44:38;;;;;;;7.07;6.30;;;24.60;50.70;;;;;;4986717;28;20397;-74
2023/09/09 05:47:08;;;;;;;5.30;5.10;;;24.60;50.60;;;;;;4979464;28;21008;-73
2023/09/09 05:49:33;;;;;;;5.90;5.23;;;24.60;50.60;;;;;;4979858;28;20230;-75
2023/09/09 05:51:59;;;;;;;5.80;5.50;;;24.60;50.50;;;;;;4979016;28;20461;-76
2023/09/09 05:54:24;;;;;;;5.20;4.90;;;24.60;50.50;;;;;;4978430;28;21268;-73
2023/09/09 05:56:50;;;;;;;5.60;5.27;;;24.60;50.60;;;;;;4980484;28;20231;-74
2023/09/09 05:59:15;;;;;;;5.70;5.33;;;24.60;50.60;;;;;;4981854;28;20637;-74
2023/09/09 06:01:42;;;;;;;5.70;5.40;;;24.60;50.50;;;;;;4982744;28;20289;-72
2023/09/09 06:04:07;;;;;;;5.43;5.23;;;24.60;50.50;;;;;;4982655;28;20274;-73
2023/09/09 06:06:33;;;;;;;5.30;4.93;;;24.60;50.50;;;;;;4966031;28;20891;-72
2023/09/09 06:08:58;;;;;;;5.30;5.07;;;24.60;50.50;;;;;;4976079;28;20247;-73
2023/09/09 06:11:24;;;;;;;5.17;4.97;;;24.60;51.00;;;;;;4980084;28;21091;-73
2023/09/09 06:13:49;;;;;;;4.90;4.70;;;24.60;50.50;;;;;;4980319;28;20480;-73
2023/09/09 06:16:15;;;;;;;5.07;4.77;;;24.60;50.60;;;;;;4980316;28;20234;-73
2023/09/09 06:18:41;;;;;;;6.00;5.70;;;24.60;50.60;;;;;;4982783;28;20246;-68
2023/09/09 06:21:06;;;;;;;6.03;5.73;;;24.60;50.60;;;;;;4984449;28;20228;-72
2023/09/09 06:23:32;;;;;;;5.23;5.03;;;24.60;50.60;;;;;;4986169;28;20693;-71
2023/09/09 06:25:57;;;;;;;5.70;5.40;;;24.60;50.60;;;;;;4986814;28;20216;-72
2023/09/09 06:28:23;;;;;;;5.13;4.80;;;24.60;50.60;;;;;;4983998;28;20227;-74
2023/09/09 06:30:48;;;;;;;5.57;5.27;;;24.60;50.60;;;;;;4987312;28;20258;-72
2023/09/09 06:33:14;;;;;;;5.83;5.57;;;24.60;50.60;;;;;;4986886;28;20698;-72
2023/09/09 06:35:52;;;;;;;5.73;5.33;;;24.60;50.60;;;;;;4984130;28;20683;-70
2023/09/09 06:38:17;;;;;;;5.77;5.47;;;24.60;50.60;;;;;;4976866;28;20315;-70
2023/09/09 06:40:44;;;;;;;5.70;5.40;;;24.60;50.70;;;;;;4985944;28;20472;-72
2023/09/09 06:43:11;;;;;;;5.33;5.03;;;24.60;50.60;;;;;;4985900;28;20805;-70
2023/09/09 06:45:36;;;;;;;5.47;5.17;;;24.60;50.70;;;;;;4985396;28;20473;-69
2023/09/09 06:48:03;;;;;;;5.47;5.17;;;24.60;50.70;;;;;;4985763;28;21043;-67
2023/09/09 06:50:29;;;;;;;5.90;5.70;;;24.60;50.70;;;;;;4977500;28;20314;-71
2023/09/09 06:52:54;;;;;;;6.17;5.87;;;24.60;50.70;;;;;;4971956;28;20503;-65
2023/09/09 06:55:20;;;;;;;5.73;5.43;;;24.60;50.70;;;;;;4968928;28;22109;-66
2023/09/09 06:57:46;;;;;;;5.57;5.27;;;24.60;50.70;;;;;;4981114;28;20223;-71
2023/09/09 07:00:12;;;;;;;5.40;5.10;;;24.60;50.70;;;;;;4981298;28;20548;-72
2023/09/09 07:02:40;;;;;;;5.60;5.20;;;24.60;50.70;;;;;;4972047;28;20251;-70
2023/09/09 07:05:06;;;;;;;6.07;5.67;;;24.60;50.70;;;;;;4962033;28;20475;-71
2023/09/09 07:07:32;;;;;;;5.20;4.90;;;24.60;50.70;;;;;;4972996;28;20468;-72
2023/09/09 07:09:57;;;;;;;5.43;5.13;;;24.60;50.70;;;;;;4983027;28;20473;-73
2023/09/09 07:12:23;;;;;;;5.40;5.17;;;24.60;50.70;;;;;;4983979;28;20235;-72
2023/09/09 07:14:48;;;;;;;5.20;5.00;;;24.60;50.70;;;;;;4988152;28;20228;-73
2023/09/09 07:17:14;;;;;;;5.40;5.10;;;24.60;50.70;;;;;;4987592;28;20238;-73
2023/09/09 07:19:40;;;;;;;5.67;5.37;;;24.60;50.60;;;;;;4990379;28;20365;-73
2023/09/09 07:22:06;;;;;;;5.57;5.17;;;24.60;50.70;;;;;;4993947;28;20544;-73
2023/09/09 07:24:32;;;;;;;5.00;4.80;;;24.60;50.70;;;;;;4970772;28;20587;-73
2023/09/09 07:26:59;;;;;;;5.10;4.80;;;24.60;50.70;;;;;;4983866;28;20520;-73
2023/09/09 07:29:25;;;;;;;5.43;5.13;;;24.60;50.70;;;;;;5000256;28;20703;-73
2023/09/09 07:31:50;;;;;;;5.30;5.00;;;24.60;50.70;;;;;;4984603;28;20469;-73
2023/09/09 07:34:16;;;;;;;6.03;5.73;;;24.60;50.60;;;;;;4970032;28;20679;-73
2023/09/09 07:36:41;;;;;;;5.90;5.53;;;24.60;51.40;;;;;;4986797;28;20227;-73
2023/09/09 07:39:07;;;;;;;5.23;4.97;;;24.60;50.70;;;;;;4985596;28;20310;-73
2023/09/09 07:41:33;;;;;;;5.20;5.00;;;24.60;50.70;;;;;;4985922;28;20223;-73
2023/09/09 07:43:58;;;;;;;4.83;4.63;;;24.60;50.70;;;;;;4981882;28;20285;-73
2023/09/09 07:46:24;;;;;;;5.93;5.47;;;24.60;50.70;;;;;;4984780;28;20222;-73
2023/09/09 07:48:49;;;;;;;5.40;5.20;;;24.60;50.70;;;;;;4966510;28;20302;-73
2023/09/09 07:51:15;;;;;;;5.63;5.33;;;24.60;50.70;;;;;;4985874;28;20232;-73
2023/09/09 07:53:40;;;;;;;5.90;5.50;;;24.60;50.70;;;;;;4986721;28;20226;-73
2023/09/09 07:56:06;;;;;;;5.50;5.20;;;24.60;50.70;;;;;;4986176;28;20228;-72
2023/09/09 07:58:31;;;;;;;5.67;5.37;;;24.60;50.70;;;;;;4985627;28;20223;-73
2023/09/09 08:01:01;;;;;;;5.90;5.60;;;24.60;50.70;;;;;;4986673;28;20224;-72
2023/09/09 08:03:26;;;;;;;4.73;4.53;;;24.60;50.70;;;;;;4983739;28;20224;-73
2023/09/09 08:06:02;;;;;;;5.03;4.83;;;24.60;50.80;;;;;;4983112;28;20467;-73
2023/09/09 08:08:28;;;;;;;5.90;5.60;;;24.60;50.70;;;;;;4965017;28;20993;-73
2023/09/09 08:10:54;;;;;;;5.30;5.10;;;24.60;50.70;;;;;;4984933;28;20540;-73
2023/09/09 08:13:19;;;;;;;5.40;5.10;;;24.60;50.70;;;;;;4984365;28;21064;-72
2023/09/09 08:15:45;;;;;;;5.33;5.03;;;24.60;50.80;;;;;;4984289;28;20228;-73
2023/09/09 08:18:11;;;;;;;5.83;5.50;;;24.60;50.80;;;;;;4985399;28;20257;-72
2023/09/09 08:20:37;;;;;;;5.50;5.30;;;24.60;50.80;;;;;;4986765;28;20223;-72
2023/09/09 08:23:03;;;;;;;5.23;5.00;;;24.60;50.70;;;;;;4985563;28;20784;-72
2023/09/09 08:25:32;;;;;;;5.60;5.30;;;24.60;50.70;;;;;;4983922;28;20434;-72
2023/09/09 08:28:01;;;;;;;5.73;5.37;;;24.60;50.70;;;;;;4984086;28;20715;-72
2023/09/09 08:30:30;;;;;;;4.87;4.57;;;24.70;50.90;;;;;;4984085;28;20462;-73
2023/09/09 08:32:56;;;;;;;5.23;5.03;;;24.60;50.70;;;;;;4986636;28;20461;-72
2023/09/09 08:35:22;;;;;;;5.30;5.00;;;24.60;50.70;;;;;;4984734;28;20534;-73
2023/09/09 08:37:48;;;;;;;5.33;4.93;;;24.60;50.80;;;;;;4985974;28;20215;-73
2023/09/09 08:40:14;;;;;;;5.40;5.20;;;24.70;50.90;;;;;;4985739;28;20465;-71
2023/09/09 08:42:47;;;;;;;6.23;5.83;;;24.60;50.80;;;;;;4998286;28;20228;-72
2023/09/09 08:46:08;;;;;;;5.67;5.37;;;24.60;50.80;;;;;;4983207;28;20303;-72
2023/09/09 08:48:37;;;;;;;5.77;5.47;;;24.70;50.80;;;;;;4912559;28;20473;-73
2023/09/09 08:51:04;;;;;;;5.50;5.20;;;24.60;50.70;;;;;;4980491;28;20473;-72
2023/09/09 08:53:31;;;;;;;6.03;5.73;;;24.60;50.70;;;;;;4981206;28;20458;-72
2023/09/09 08:55:58;;;;;;;6.00;5.70;;;24.70;50.90;;;;;;4986506;28;20575;-72
2023/09/09 08:58:24;;;;;;;5.47;5.17;;;24.70;50.90;;;;;;4982381;28;21536;-72
2023/09/09 09:00:50;;;;;;;5.30;5.10;;;24.70;50.90;;;;;;4981250;28;20988;-72
2023/09/09 09:03:18;;;;;;;6.03;5.63;;;24.70;50.80;;;;;;4982504;28;20525;-72
2023/09/09 09:05:44;;;;;;;6.20;5.80;;;24.70;50.80;;;;;;4986536;28;20294;-72
2023/09/09 09:08:10;;;;;;;6.23;5.93;;;24.70;50.90;;;;;;4982186;28;20941;-72
2023/09/09 09:10:40;;;;;;;6.43;6.07;;;24.70;50.90;;;;;;4983039;28;20559;-72
2023/09/09 09:13:06;;;;;;;5.53;5.23;;;24.70;50.80;;;;;;4984311;28;20326;-72
2023/09/09 09:15:32;;;;;;;5.70;5.40;;;24.70;50.80;;;;;;4981738;28;20460;-72
2023/09/09 09:18:00;;;;;;;5.60;5.30;;;24.70;50.90;;;;;;4973681;28;20232;-72
2023/09/09 09:20:27;;;;;;;5.80;5.50;;;24.70;50.90;;;;;;4982591;28;20485;-72
2023/09/09 09:22:57;;;;;;;5.97;5.60;;;24.70;50.90;;;;;;4971365;28;20880;-72
2023/09/09 09:25:23;;;;;;;5.90;5.60;;;24.70;50.80;;;;;;4982694;28;20922;-73
2023/09/09 09:27:49;;;;;;;6.03;5.73;;;24.70;50.80;;;;;;4985980;28;20472;-72
2023/09/09 09:30:14;;;;;;;6.43;6.13;;;24.70;50.80;;;;;;4982280;28;20484;-72
2023/09/09 09:32:43;;;;;;;5.10;4.70;;;24.70;50.90;;;;;;4980993;28;21085;-72
2023/09/09 09:35:28;;;;;;;5.83;5.53;;;24.70;50.80;;;;;;4997394;28;20698;-72
2023/09/09 09:38:00;;;;;;;5.80;5.50;;;24.70;50.80;;;;;;4981427;28;20465;-72
2023/09/09 09:40:27;;;;;;;5.30;5.10;;;24.70;50.80;;;;;;4981979;28;20560;-72
2023/09/09 09:42:53;;;;;;;5.90;5.70;;;24.70;50.90;;;;;;4980834;28;20508;-72
2023/09/09 09:45:25;;;;;;;5.90;5.50;;;24.70;50.90;;;;;;4982777;28;20475;-72
2023/09/09 09:47:50;;;;;;;6.07;5.80;;;24.70;50.90;;;;;;4981715;28;20449;-72
2023/09/09 09:50:28;;;;;;;7.13;6.80;;;24.70;50.80;;;;;;4981603;28;20487;-72
2023/09/09 09:53:01;;;;;;;5.80;5.50;;;24.70;50.80;;;;;;4979681;28;21499;-72
2023/09/09 09:55:28;;;;;;;5.80;5.50;;;24.70;50.80;;;;;;4981498;28;20527;-72
2023/09/09 09:58:15;;;;;;;5.77;5.50;;;24.70;50.90;;;;;;4968796;28;20892;-73
2023/09/09 10:00:41;;;;;;;5.73;5.43;;;24.70;50.90;;;;;;4982445;28;20537;-72
2023/09/09 10:03:09;;;;;;;5.97;5.67;;;24.70;50.90;;;;;;4979640;28;20479;-72
2023/09/09 10:05:37;;;;;;;5.60;5.30;;;24.70;50.90;;;;;;4980303;28;20449;-72
2023/09/09 10:08:05;;;;;;;5.70;5.40;;;24.80;51.00;;;;;;4981878;28;20475;-73
2023/09/09 10:10:33;;;;;;;5.57;5.27;;;24.70;50.80;;;;;;4982406;28;20484;-72
2023/09/09 10:13:04;;;;;;;5.53;5.33;;;24.70;50.90;;;;;;4981408;28;20485;-72
2023/09/09 10:15:32;;;;;;;5.47;5.17;;;24.70;50.90;;;;;;4982587;28;20492;-73
2023/09/09 10:17:59;;;;;;;5.17;4.97;;;24.70;50.90;;;;;;4981656;28;20555;-72
2023/09/09 10:20:26;;;;;;;5.70;5.40;;;24.70;50.90;;;;;;4979620;28;20531;-72
2023/09/09 10:22:59;;;;;;;5.80;5.50;;;24.70;50.80;;;;;;4980822;28;20614;-73
2023/09/09 10:25:32;;;;;;;5.73;5.43;;;24.70;50.80;;;;;;4980828;28;20504;-73
2023/09/09 10:27:57;;;;;;;5.80;5.50;;;24.70;50.80;;;;;;4982790;28;20504;-72
2023/09/09 10:30:24;;;;;;;5.90;5.70;;;24.70;50.80;;;;;;4982519;28;20481;-73
2023/09/09 10:32:50;;;;;;;6.10;5.80;;;24.80;50.90;;;;;;4982192;28;20219;-73
2023/09/09 10:35:18;;;;;;;5.83;5.57;;;24.70;50.80;;;;;;4980280;28;20529;-73
2023/09/09 10:37:44;;;;;;;5.10;4.80;;;24.70;50.80;;;;;;4982390;28;20505;-73
2023/09/09 10:40:11;;;;;;;5.57;5.37;;;24.70;50.90;;;;;;4980533;28;20469;-73
2023/09/09 10:42:39;;;;;;;5.10;4.80;;;24.70;50.80;;;;;;4980649;28;20453;-73
2023/09/09 10:45:25;;;;;;;5.53;5.30;;;24.80;51.00;;;;;;4975256;28;20453;-72
2023/09/09 10:48:05;;;;;;;6.53;6.20;;;24.80;50.90;;;;;;4978136;28;20466;-72
2023/09/09 10:50:57;;;;;;;5.80;5.50;;;24.80;51.00;;;;;;4983570;28;20516;-72
2023/09/09 10:53:28;;;;;;;5.57;5.27;;;24.80;50.90;;;;;;4975361;28;20537;-72
2023/09/09 10:56:01;;;;;;;5.90;5.50;;;24.80;51.00;;;;;;4965105;28;20460;-72
2023/09/09 10:58:38;;;;;;;5.70;5.40;;;24.80;51.00;;;;;;4980282;28;20468;-72
2023/09/09 11:01:07;;;;;;;5.30;5.00;;;24.80;51.00;;;;;;4983112;28;20461;-72
2023/09/09 11:03:45;;;;;;;6.20;5.83;;;24.80;51.00;;;;;;4980477;28;20476;-73
2023/09/09 11:06:25;;;;;;;6.20;5.90;;;24.80;50.90;;;;;;4982733;28;20470;-72
2023/09/09 11:08:54;;;;;;;5.70;5.40;;;24.80;50.90;;;;;;4978309;28;20464;-72
2023/09/09 11:11:37;;;;;;;5.57;5.27;;;24.80;50.90;;;;;;4980273;28;20528;-72
2023/09/09 11:14:05;;;;;;;6.60;6.20;;;24.80;50.90;;;;;;4979785;28;20497;-72
2023/09/09 11:16:41;;;;;;;6.87;6.53;;;24.80;50.90;;;;;;4980534;28;20556;-72
2023/09/09 11:19:11;;;;;;;5.57;5.27;;;24.80;50.90;;;;;;4979028;28;20453;-72
2023/09/09 11:21:43;;;;;;;5.37;5.10;;;24.80;50.90;;;;;;4978645;28;20507;-73
2023/09/09 11:24:10;;;;;;;5.40;5.10;;;24.80;50.90;;;;;;4980221;28;20995;-72
2023/09/09 11:26:46;;;;;;;5.20;4.97;;;24.80;51.00;;;;;;4980902;28;20495;-72
2023/09/09 11:29:12;;;;;;;5.50;5.30;;;24.80;51.00;;;;;;4979312;28;20467;-72
2023/09/09 11:31:38;;;;;;;5.53;5.33;;;24.80;51.00;;;;;;4979265;28;20491;-72
2023/09/09 11:34:05;;;;;;;6.10;5.80;;;24.80;51.00;;;;;;4980333;28;21223;-72
2023/09/09 11:36:31;;;;;;;5.53;5.23;;;24.80;51.00;;;;;;4981482;28;20246;-72
2023/09/09 11:38:59;;;;;;;5.60;5.30;;;24.80;50.90;;;;;;4963789;28;20934;-73
2023/09/09 11:41:26;;;;;;;5.27;4.97;;;24.80;51.00;;;;;;4976794;28;20496;-73
2023/09/09 11:44:03;;;;;;;5.67;5.37;;;24.80;51.60;;;;;;4979910;28;20468;-72
2023/09/09 11:46:32;;;;;;;6.23;5.93;;;24.80;50.90;;;;;;4983102;28;20933;-72
2023/09/09 11:48:58;;;;;;;5.83;5.53;;;24.80;50.90;;;;;;4981688;28;20457;-72
2023/09/09 11:51:23;;;;;;;5.70;5.40;;;24.80;51.00;;;;;;4981498;28;20480;-73
2023/09/09 11:53:49;;;;;;;6.43;6.03;;;24.80;51.00;;;;;;4977739;28;20313;-73
2023/09/09 11:56:17;;;;;;;5.60;5.30;;;24.80;51.00;;;;;;4982166;28;20227;-72
2023/09/09 11:58:43;;;;;;;5.70;5.40;;;24.80;51.10;;;;;;4979969;28;20297;-73
2023/09/09 12:01:10;;;;;;;4.97;4.77;;;24.80;50.90;;;;;;4982679;28;21227;-72
2023/09/09 12:03:36;;;;;;;5.57;5.27;;;24.80;51.00;;;;;;4978514;28;20231;-73
2023/09/09 12:06:03;;;;;;;5.53;5.33;;;24.80;51.00;;;;;;4980581;28;21642;-73
2023/09/09 12:08:30;;;;;;;4.80;4.60;;;24.80;51.00;;;;;;4981188;28;20486;-73
2023/09/09 12:10:57;;;;;;;5.00;4.70;;;24.80;51.00;;;;;;4983761;28;20476;-73
2023/09/09 12:13:23;;;;;;;5.73;5.33;;;24.80;51.00;;;;;;4984019;28;20457;-72
2023/09/09 12:15:49;;;;;;;5.80;5.40;;;24.80;50.90;;;;;;4985953;28;20456;-73
2023/09/09 12:18:14;;;;;;;4.83;4.63;;;24.80;51.00;;;;;;4986776;28;20566;-72
2023/09/09 12:21:08;;;;;;;5.77;5.47;;;24.80;50.90;;;;;;4984470;28;20592;-72
2023/09/09 12:23:38;;;;;;;5.10;4.90;;;24.80;50.90;;;;;;4984165;28;20220;-72
2023/09/09 12:26:18;;;;;;;5.27;5.07;;;24.90;51.00;;;;;;4983611;28;20580;-72
2023/09/09 12:29:12;;;;;;;5.70;5.17;;;24.80;51.00;;;;;;4985429;28;20563;-72
2023/09/09 12:31:54;;;;;;;4.80;4.60;;;24.80;50.90;;;;;;4987605;28;20465;-72
2023/09/09 12:34:24;;;;;;;5.83;5.43;;;24.80;51.00;;;;;;4967134;28;20468;-73
2023/09/09 12:36:54;;;;;;;5.30;5.10;;;24.80;51.00;;;;;;4983008;28;20523;-72
2023/09/09 12:39:25;;;;;;;5.07;4.87;;;24.80;51.00;;;;;;4965350;28;20566;-72
2023/09/09 12:42:00;;;;;;;5.70;5.40;;;24.80;51.10;;;;;;4985623;28;20549;-72
2023/09/09 12:44:26;;;;;;;4.90;4.70;;;24.80;51.00;;;;;;4984608;28;20511;-73
2023/09/09 12:46:52;;;;;;;5.27;4.97;;;24.90;51.00;;;;;;4982517;28;20576;-72
2023/09/09 12:49:18;;;;;;;5.67;5.40;;;24.90;51.00;;;;;;4983905;28;20357;-72
2023/09/09 12:51:43;;;;;;;6.30;5.90;;;24.80;51.00;;;;;;4983671;28;20886;-72
2023/09/09 12:54:09;;;;;;;5.27;5.07;;;24.80;51.00;;;;;;4982330;28;21001;-72
2023/09/09 12:56:34;;;;;;;5.50;5.20;;;24.80;50.90;;;;;;4982790;28;20223;-73